Time;durP1;ratioP1;P1;durP2;ratioP2;P2;SDS_P1;SDS_P2;PMS_P1;PMS_P2;Temp;Humidity;BMP_temperature;BMP_pressure;BME280_temperature;BME280_humidity;BME280_pressure;Samples;Min_cycle;Max_cycle;Signal;HPM_P1;HPM_P2
2021/06/07 00:00:21;;;;;;;4.00;1.30;;;19.60;99.90;;;;;;5093559;28;20070;-79
2021/06/07 00:02:48;;;;;;;0.82;0.82;;;19.60;99.90;;;;;;5093270;28;20028;-79
2021/06/07 00:05:16;;;;;;;0.90;0.90;;;19.60;99.90;;;;;;5094328;28;20112;-78
2021/06/07 00:07:41;;;;;;;1.50;1.05;;;19.60;99.90;;;;;;5093057;28;20043;-79
2021/06/07 00:10:10;;;;;;;1.50;0.93;;;19.60;99.90;;;;;;5094542;28;20020;-79
2021/06/07 00:12:36;;;;;;;0.82;0.80;;;19.60;99.90;;;;;;5093277;28;20081;-79
2021/06/07 00:15:08;;;;;;;2.70;1.10;;;19.60;99.90;;;;;;5094171;28;20016;-79
2021/06/07 00:17:33;;;;;;;1.00;1.00;;;19.60;99.90;;;;;;5092403;28;20050;-79
2021/06/07 00:19:59;;;;;;;1.25;0.88;;;19.70;99.90;;;;;;5093144;28;20531;-79
2021/06/07 00:22:25;;;;;;;1.05;1.05;;;19.70;99.90;;;;;;5094211;28;20075;-79
2021/06/07 00:24:51;;;;;;;0.82;0.82;;;19.70;99.90;;;;;;5092985;28;20031;-79
2021/06/07 00:27:16;;;;;;;0.90;0.90;;;19.80;99.90;;;;;;5092968;28;20023;-79
2021/06/07 00:29:42;;;;;;;2.10;1.05;;;19.80;99.90;;;;;;5093897;28;20028;-80
2021/06/07 00:32:08;;;;;;;2.45;1.05;;;19.80;99.90;;;;;;5094207;28;20027;-80
2021/06/07 00:34:34;;;;;;;0.88;0.88;;;19.80;99.90;;;;;;5094054;28;20036;-79
2021/06/07 00:37:00;;;;;;;1.80;0.90;;;19.80;99.90;;;;;;5093625;28;20020;-80
2021/06/07 00:39:26;;;;;;;1.00;1.00;;;19.80;99.90;;;;;;5093780;28;20035;-79
2021/06/07 00:41:51;;;;;;;0.70;0.70;;;19.80;99.90;;;;;;5082066;28;20113;-79
2021/06/07 00:44:21;;;;;;;0.80;0.80;;;19.70;99.90;;;;;;5073598;28;20067;-79
2021/06/07 00:46:48;;;;;;;0.90;0.90;;;19.70;99.90;;;;;;5106162;28;20092;-79
2021/06/07 00:49:14;;;;;;;0.70;0.70;;;19.80;99.90;;;;;;5073660;28;20024;-80
2021/06/07 00:51:42;;;;;;;1.20;1.10;;;19.80;99.90;;;;;;5072940;28;20506;-80
2021/06/07 00:54:09;;;;;;;0.70;0.70;;;19.90;99.90;;;;;;5093621;28;20024;-79
2021/06/07 00:56:35;;;;;;;2.22;0.90;;;20.00;99.90;;;;;;5092172;28;20115;-80
2021/06/07 00:59:01;;;;;;;0.65;0.65;;;20.00;99.90;;;;;;5092348;28;20106;-80
2021/06/07 01:01:28;;;;;;;0.70;0.70;;;19.90;99.90;;;;;;5093719;28;20024;-80
2021/06/07 01:03:56;;;;;;;0.98;0.98;;;19.90;99.90;;;;;;5093637;28;20042;-80
2021/06/07 01:06:22;;;;;;;0.98;0.98;;;20.00;99.90;;;;;;5092999;28;20487;-80
2021/06/07 01:08:49;;;;;;;0.80;0.80;;;19.90;99.90;;;;;;5092136;28;20024;-79
2021/06/07 01:11:15;;;;;;;1.73;1.10;;;19.90;99.90;;;;;;5091962;28;20028;-80
2021/06/07 01:13:42;;;;;;;1.00;0.90;;;20.00;99.90;;;;;;5092051;28;20035;-80
2021/06/07 01:16:09;;;;;;;1.05;1.00;;;19.90;99.90;;;;;;5093345;28;20439;-80
2021/06/07 01:18:35;;;;;;;1.55;1.30;;;19.90;99.90;;;;;;5093358;28;20065;-80
2021/06/07 01:21:06;;;;;;;1.10;1.10;;;19.80;99.90;;;;;;5092028;28;20031;-80
2021/06/07 01:23:32;;;;;;;0.88;0.88;;;19.80;99.90;;;;;;5092986;28;20036;-80
2021/06/07 01:26:01;;;;;;;0.95;0.95;;;19.80;99.90;;;;;;5091801;28;20043;-80
2021/06/07 01:28:28;;;;;;;1.48;1.10;;;19.80;99.90;;;;;;5091106;28;20047;-79
2021/06/07 01:30:54;;;;;;;1.52;1.45;;;19.80;99.90;;;;;;5093156;28;20484;-80
2021/06/07 01:33:22;;;;;;;1.00;1.00;;;19.80;99.90;;;;;;5091887;28;20019;-80
2021/06/07 01:35:50;;;;;;;3.53;1.10;;;19.90;99.90;;;;;;5091614;28;20028;-80
2021/06/07 01:38:17;;;;;;;2.20;1.10;;;19.90;99.90;;;;;;5091752;28;20025;-80
2021/06/07 01:40:52;;;;;;;1.08;0.98;;;20.00;99.90;;;;;;5090700;28;20024;-80
2021/06/07 01:43:18;;;;;;;0.68;0.63;;;20.00;99.90;;;;;;5072857;28;20029;-80
2021/06/07 01:45:48;;;;;;;1.15;1.02;;;20.00;99.90;;;;;;5072799;28;20036;-80
2021/06/07 01:48:15;;;;;;;0.93;0.93;;;20.10;99.90;;;;;;5072773;28;20098;-80
2021/06/07 01:50:42;;;;;;;1.48;1.25;;;20.10;99.90;;;;;;5072816;28;20025;-80
2021/06/07 01:53:09;;;;;;;1.10;1.02;;;20.10;99.90;;;;;;5072551;28;20110;-81
2021/06/07 01:55:38;;;;;;;1.05;1.00;;;20.10;99.90;;;;;;5072696;28;20020;-80
2021/06/07 01:58:06;;;;;;;1.13;1.10;;;20.00;99.90;;;;;;5081704;28;20537;-80
2021/06/07 02:00:43;;;;;;;2.55;1.00;;;20.00;99.90;;;;;;5091579;28;20016;-79
2021/06/07 02:03:09;;;;;;;1.40;1.05;;;20.00;99.90;;;;;;5092551;28;20107;-80
2021/06/07 02:05:37;;;;;;;0.70;0.70;;;20.00;99.90;;;;;;5125558;27;20572;-80
2021/06/07 02:08:09;;;;;;;2.95;0.82;;;20.00;99.90;;;;;;5095888;28;20161;-80
2021/06/07 02:10:40;;;;;;;2.10;1.05;;;20.00;99.90;;;;;;5111807;28;20112;-80
2021/06/07 02:13:08;;;;;;;1.85;0.80;;;19.90;99.90;;;;;;5092857;28;20047;-80
2021/06/07 02:15:34;;;;;;;1.65;0.82;;;20.00;99.90;;;;;;5125553;28;20115;-80
2021/06/07 02:18:01;;;;;;;0.90;0.90;;;20.00;99.90;;;;;;5091222;28;20499;-80
2021/06/07 02:20:27;;;;;;;0.80;0.80;;;20.00;99.90;;;;;;5092792;28;20376;-80
2021/06/07 02:22:53;;;;;;;0.77;0.77;;;20.00;99.90;;;;;;5091254;28;20073;-80
2021/06/07 02:25:20;;;;;;;1.13;1.05;;;20.00;99.90;;;;;;5092367;28;20503;-80
2021/06/07 02:27:47;;;;;;;0.82;0.82;;;20.00;99.90;;;;;;5091315;28;20024;-80
2021/06/07 02:30:25;;;;;;;1.05;1.05;;;19.90;99.90;;;;;;5091366;28;20516;-80
2021/06/07 02:32:55;;;;;;;0.80;0.80;;;19.90;99.90;;;;;;5092687;28;20050;-80
2021/06/07 02:35:22;;;;;;;1.77;0.90;;;19.90;99.90;;;;;;5091166;28;20024;-80
2021/06/07 02:37:51;;;;;;;1.23;1.10;;;19.90;99.90;;;;;;5122119;28;20111;-80
2021/06/07 02:40:26;;;;;;;0.98;0.98;;;19.90;99.90;;;;;;5094157;28;20028;-80
2021/06/07 02:42:53;;;;;;;0.98;0.80;;;19.90;99.90;;;;;;5091334;28;20053;-79
2021/06/07 02:45:21;;;;;;;1.02;1.02;;;20.00;99.90;;;;;;5096290;28;20024;-80
2021/06/07 02:47:49;;;;;;;1.10;1.10;;;20.00;99.90;;;;;;5095832;28;20028;-80
2021/06/07 02:50:20;;;;;;;1.10;1.10;;;19.90;99.90;;;;;;5094996;28;20115;-79
2021/06/07 02:52:48;;;;;;;1.00;0.90;;;19.90;99.90;;;;;;5096252;28;20153;-80
2021/06/07 02:55:35;;;;;;;2.30;1.00;;;19.90;99.90;;;;;;5095813;28;20028;-81
2021/06/07 02:58:02;;;;;;;1.15;0.90;;;19.90;99.90;;;;;;5096048;28;20027;-79
2021/06/07 03:00:34;;;;;;;1.17;1.00;;;19.90;99.90;;;;;;5128805;27;20024;-80
2021/06/07 03:03:01;;;;;;;1.02;0.85;;;19.90;99.90;;;;;;5095823;28;20028;-79
2021/06/07 03:05:27;;;;;;;2.63;0.90;;;20.00;99.90;;;;;;5094694;28;20097;-79
2021/06/07 03:07:53;;;;;;;0.50;0.50;;;19.90;99.90;;;;;;5094402;28;20039;-79
2021/06/07 03:10:19;;;;;;;2.03;0.82;;;19.90;99.90;;;;;;5095826;28;20032;-80
2021/06/07 03:12:45;;;;;;;1.52;0.80;;;19.80;99.90;;;;;;5095845;28;20024;-79
2021/06/07 03:15:13;;;;;;;1.35;1.10;;;19.80;99.90;;;;;;5095738;28;20105;-79
2021/06/07 03:17:39;;;;;;;1.52;1.17;;;19.70;99.90;;;;;;5095446;28;20028;-79
2021/06/07 03:20:07;;;;;;;1.85;0.90;;;19.70;99.90;;;;;;5095588;28;20506;-80
2021/06/07 03:22:33;;;;;;;0.90;0.90;;;19.70;99.90;;;;;;5095025;28;20072;-79
2021/06/07 03:24:59;;;;;;;1.67;0.82;;;19.70;99.90;;;;;;5095508;28;20050;-79
2021/06/07 03:27:25;;;;;;;0.70;0.70;;;19.70;99.90;;;;;;5095133;28;20523;-79
2021/06/07 03:29:50;;;;;;;1.15;1.00;;;19.70;99.90;;;;;;5095126;28;20039;-79
2021/06/07 03:32:16;;;;;;;1.40;0.80;;;19.80;99.90;;;;;;5095124;28;20055;-79
2021/06/07 03:34:42;;;;;;;1.30;0.80;;;19.80;99.90;;;;;;5093770;28;20127;-79
2021/06/07 03:37:08;;;;;;;1.08;1.08;;;19.70;99.90;;;;;;5094591;28;20062;-79
2021/06/07 03:39:34;;;;;;;1.75;0.90;;;19.80;99.90;;;;;;5094644;28;20016;-79
2021/06/07 03:41:59;;;;;;;2.97;1.27;;;19.80;99.90;;;;;;5093759;28;20024;-79
2021/06/07 03:44:25;;;;;;;1.52;0.77;;;19.80;99.90;;;;;;5094878;28;20092;-79
2021/06/07 03:46:51;;;;;;;1.85;1.00;;;19.80;99.90;;;;;;5094856;28;20027;-79
2021/06/07 03:49:17;;;;;;;0.70;0.70;;;19.80;99.90;;;;;;5094803;28;20024;-79
2021/06/07 03:51:43;;;;;;;2.40;0.90;;;19.80;99.90;;;;;;5092510;28;20031;-79
2021/06/07 03:54:09;;;;;;;1.15;1.13;;;19.70;99.90;;;;;;5094910;28;20028;-79
2021/06/07 03:56:34;;;;;;;6.60;1.42;;;19.70;99.90;;;;;;5093237;28;20111;-79
2021/06/07 03:59:00;;;;;;;1.02;0.98;;;19.70;99.90;;;;;;5092747;28;20601;-79
2021/06/07 04:01:26;;;;;;;1.27;1.17;;;19.70;99.90;;;;;;5094134;28;20096;-79
2021/06/07 04:03:52;;;;;;;1.42;0.80;;;19.70;99.90;;;;;;5092675;28;20509;-79
2021/06/07 04:06:19;;;;;;;0.95;0.95;;;19.70;99.90;;;;;;5093793;28;20025;-79
2021/06/07 04:08:45;;;;;;;2.50;0.90;;;19.80;99.90;;;;;;5108119;28;20011;-79
2021/06/07 04:11:11;;;;;;;1.75;1.10;;;19.70;99.90;;;;;;5109165;28;20107;-79
2021/06/07 04:13:37;;;;;;;1.38;0.82;;;19.80;99.90;;;;;;5092231;28;20375;-79
2021/06/07 04:16:04;;;;;;;0.90;0.90;;;19.70;99.90;;;;;;5092524;28;20027;-79
2021/06/07 04:18:30;;;;;;;1.23;0.95;;;19.70;99.90;;;;;;5092349;28;20077;-79
2021/06/07 04:20:55;;;;;;;0.82;0.82;;;19.70;99.90;;;;;;5092318;28;20027;-79
2021/06/07 04:23:21;;;;;;;1.40;1.30;;;19.70;99.90;;;;;;5094033;28;20535;-79
2021/06/07 04:25:47;;;;;;;2.55;1.10;;;19.70;99.90;;;;;;5094282;28;20055;-79
2021/06/07 04:28:13;;;;;;;2.70;0.90;;;19.70;99.90;;;;;;5094112;28;20027;-80
2021/06/07 04:30:39;;;;;;;1.17;1.10;;;19.80;99.90;;;;;;5092847;28;20055;-80
2021/06/07 04:33:04;;;;;;;1.55;1.10;;;19.80;99.90;;;;;;5094021;28;20028;-80
2021/06/07 04:35:30;;;;;;;2.25;1.05;;;19.80;99.90;;;;;;5094033;28;20032;-80
2021/06/07 04:37:56;;;;;;;0.90;0.90;;;19.80;99.90;;;;;;5092847;28;20099;-80
2021/06/07 04:40:44;;;;;;;1.38;0.93;;;19.80;99.90;;;;;;5092624;28;20472;-80
2021/06/07 04:43:12;;;;;;;1.38;1.08;;;19.80;99.90;;;;;;5087392;28;20046;-80
2021/06/07 04:45:39;;;;;;;1.42;1.05;;;19.80;99.90;;;;;;5092163;28;20119;-80
2021/06/07 04:48:06;;;;;;;1.10;1.10;;;19.90;99.90;;;;;;5093628;28;20024;-80
2021/06/07 04:50:33;;;;;;;1.23;1.13;;;20.00;99.90;;;;;;5092611;28;20115;-80
2021/06/07 04:53:02;;;;;;;1.25;1.20;;;19.90;99.90;;;;;;5093810;28;20450;-80
2021/06/07 04:55:28;;;;;;;0.98;0.98;;;20.00;99.90;;;;;;5093670;28;20031;-79
2021/06/07 04:57:55;;;;;;;2.03;1.30;;;19.90;99.90;;;;;;5092439;28;20380;-79
2021/06/07 05:00:23;;;;;;;2.28;1.10;;;19.90;99.90;;;;;;5093712;28;20499;-80
2021/06/07 05:02:50;;;;;;;3.97;1.20;;;19.90;99.90;;;;;;5093267;28;20073;-79
2021/06/07 05:05:17;;;;;;;1.00;1.00;;;19.90;99.90;;;;;;5092312;28;20646;-79
2021/06/07 05:07:43;;;;;;;1.40;1.13;;;19.90;99.90;;;;;;5093341;28;20032;-80
2021/06/07 05:10:10;;;;;;;1.35;1.25;;;19.90;99.90;;;;;;5093318;28;20511;-80
2021/06/07 05:12:36;;;;;;;1.45;1.08;;;19.90;99.90;;;;;;5076741;28;20031;-80
2021/06/07 05:15:03;;;;;;;2.08;1.23;;;19.80;99.90;;;;;;5105639;28;20032;-80
2021/06/07 05:17:29;;;;;;;1.77;1.67;;;19.80;99.90;;;;;;5081806;28;20034;-80
2021/06/07 05:19:54;;;;;;;2.80;1.25;;;19.80;99.90;;;;;;5092065;28;20111;-80
2021/06/07 05:22:20;;;;;;;1.05;1.00;;;19.80;99.90;;;;;;5092807;28;20036;-80
2021/06/07 05:24:46;;;;;;;1.13;1.02;;;19.80;99.90;;;;;;5092096;28;20597;-79
2021/06/07 05:27:12;;;;;;;1.05;1.05;;;19.80;99.90;;;;;;5093234;28;20571;-79
2021/06/07 05:29:38;;;;;;;1.00;1.00;;;19.80;99.90;;;;;;5091893;28;20051;-79
2021/06/07 05:32:04;;;;;;;1.52;1.42;;;19.90;99.90;;;;;;5092990;28;20052;-79
2021/06/07 05:34:30;;;;;;;1.65;1.55;;;19.90;99.90;;;;;;5091608;28;20119;-79
2021/06/07 05:36:55;;;;;;;1.15;1.05;;;19.90;99.90;;;;;;5093090;28;20428;-79
2021/06/07 05:39:21;;;;;;;2.13;1.20;;;20.00;99.90;;;;;;5091507;28;20043;-79
2021/06/07 05:41:47;;;;;;;1.58;1.48;;;20.00;99.90;;;;;;5083026;28;20028;-80
2021/06/07 05:44:13;;;;;;;2.17;1.63;;;20.00;99.90;;;;;;5072765;28;20107;-79
2021/06/07 05:46:39;;;;;;;1.30;1.20;;;20.10;99.90;;;;;;5072821;28;20086;-79
2021/06/07 05:49:05;;;;;;;1.20;1.20;;;20.10;99.90;;;;;;5081479;28;20020;-79
2021/06/07 05:51:31;;;;;;;1.40;1.30;;;20.10;99.90;;;;;;5125412;28;20076;-80
2021/06/07 05:53:56;;;;;;;2.38;1.30;;;20.10;99.90;;;;;;5091361;28;20028;-80
2021/06/07 05:56:22;;;;;;;2.13;1.50;;;20.10;99.90;;;;;;5091559;28;20016;-80
2021/06/07 05:58:48;;;;;;;2.08;1.10;;;20.10;99.90;;;;;;5092728;28;20028;-80
2021/06/07 06:01:14;;;;;;;3.63;1.52;;;20.10;99.90;;;;;;5091528;28;20082;-79
2021/06/07 06:03:40;;;;;;;1.30;1.20;;;20.10;99.90;;;;;;5092219;28;20043;-79
2021/06/07 06:06:06;;;;;;;2.90;1.73;;;20.10;99.90;;;;;;5099232;28;20360;-80
2021/06/07 06:08:31;;;;;;;1.92;1.67;;;20.20;99.90;;;;;;5092437;28;20074;-80
2021/06/07 06:10:57;;;;;;;8.25;1.20;;;20.20;99.90;;;;;;5091538;28;20476;-79
2021/06/07 06:13:23;;;;;;;1.77;1.30;;;20.20;99.90;;;;;;5091248;28;20032;-80
2021/06/07 06:15:49;;;;;;;1.77;1.20;;;20.20;99.90;;;;;;5095183;28;20085;-80
2021/06/07 06:18:14;;;;;;;1.50;1.40;;;20.30;99.90;;;;;;5096525;28;20031;-79
2021/06/07 06:20:40;;;;;;;1.42;1.33;;;20.30;99.90;;;;;;5096198;28;20020;-80
2021/06/07 06:23:06;;;;;;;1.42;1.35;;;20.40;99.90;;;;;;5096587;28;20048;-79
2021/06/07 06:25:31;;;;;;;1.42;1.10;;;20.30;99.90;;;;;;5095362;28;20024;-80
2021/06/07 06:27:59;;;;;;;1.48;1.38;;;20.30;99.90;;;;;;5096439;28;20099;-80
2021/06/07 06:30:27;;;;;;;1.80;1.70;;;20.40;99.90;;;;;;5095294;28;20077;-80
2021/06/07 06:32:57;;;;;;;5.43;1.70;;;20.40;99.90;;;;;;5096489;28;20047;-80
2021/06/07 06:35:23;;;;;;;2.92;1.30;;;20.50;99.90;;;;;;5096234;28;20123;-80
2021/06/07 06:37:50;;;;;;;1.65;1.55;;;20.50;99.90;;;;;;5094959;28;20024;-80
2021/06/07 06:40:24;;;;;;;1.63;1.52;;;20.60;99.90;;;;;;5096178;28;20024;-80
2021/06/07 06:42:52;;;;;;;1.60;1.50;;;20.60;99.90;;;;;;5090947;28;20490;-80
2021/06/07 06:45:18;;;;;;;2.03;1.90;;;20.70;99.90;;;;;;5096077;28;20035;-79
2021/06/07 06:47:44;;;;;;;2.33;1.90;;;20.70;99.90;;;;;;5096153;28;20125;-79
2021/06/07 06:50:11;;;;;;;1.50;1.40;;;20.80;99.90;;;;;;5094678;28;20419;-80
2021/06/07 06:52:38;;;;;;;1.88;1.65;;;20.80;99.90;;;;;;5096057;28;20551;-80
2021/06/07 06:55:06;;;;;;;1.48;1.38;;;20.80;99.90;;;;;;5089446;28;20073;-78
2021/06/07 06:57:33;;;;;;;2.05;1.95;;;20.80;99.90;;;;;;5087048;28;20030;-78
2021/06/07 06:59:59;;;;;;;2.25;2.08;;;20.80;99.90;;;;;;5088277;28;20065;-79
2021/06/07 07:02:25;;;;;;;1.95;1.80;;;20.80;99.90;;;;;;5091586;28;20020;-78
2021/06/07 07:04:50;;;;;;;2.38;2.17;;;20.80;99.90;;;;;;5088477;28;20032;-78
2021/06/07 07:07:16;;;;;;;1.40;1.27;;;20.80;99.90;;;;;;5092173;28;20085;-78
2021/06/07 07:09:43;;;;;;;2.20;1.60;;;20.70;99.90;;;;;;5089301;28;20020;-79
2021/06/07 07:12:12;;;;;;;2.63;1.70;;;20.80;99.90;;;;;;5095673;28;20066;-78
2021/06/07 07:14:39;;;;;;;3.35;1.63;;;20.80;99.90;;;;;;5092570;28;20085;-78
2021/06/07 07:17:05;;;;;;;2.10;1.55;;;20.90;99.90;;;;;;5094618;28;20036;-79
2021/06/07 07:19:33;;;;;;;5.10;2.25;;;20.90;99.90;;;;;;5089121;28;20070;-78
2021/06/07 07:21:59;;;;;;;1.90;1.80;;;20.90;99.90;;;;;;5090508;28;20048;-79
2021/06/07 07:24:25;;;;;;;1.90;1.70;;;21.00;99.90;;;;;;5088361;28;20024;-79
2021/06/07 07:26:51;;;;;;;3.03;1.80;;;21.10;99.90;;;;;;5088932;28;20035;-79
2021/06/07 07:29:17;;;;;;;3.08;1.95;;;21.10;99.90;;;;;;5089169;28;20035;-79
2021/06/07 07:31:42;;;;;;;2.60;2.40;;;21.10;99.90;;;;;;5089633;28;20040;-79
2021/06/07 07:34:08;;;;;;;2.50;2.30;;;21.20;99.90;;;;;;5087990;28;20051;-79
2021/06/07 07:36:34;;;;;;;3.88;2.35;;;21.30;99.90;;;;;;5086048;28;20840;-79
2021/06/07 07:38:59;;;;;;;2.63;1.98;;;21.30;99.90;;;;;;5088712;28;20082;-79
2021/06/07 07:41:27;;;;;;;2.33;2.13;;;21.30;99.90;;;;;;5089663;28;20028;-78
2021/06/07 07:43:53;;;;;;;2.10;1.90;;;21.30;99.90;;;;;;5091364;28;20016;-78
2021/06/07 07:46:19;;;;;;;4.00;2.03;;;21.30;99.90;;;;;;5095333;28;20027;-78
2021/06/07 07:48:44;;;;;;;2.20;2.10;;;21.30;99.90;;;;;;5092632;28;20020;-78
2021/06/07 07:51:10;;;;;;;6.20;2.47;;;21.40;99.90;;;;;;5092089;28;20632;-79
2021/06/07 07:53:36;;;;;;;2.03;1.90;;;21.40;99.90;;;;;;5091123;28;20023;-79
2021/06/07 07:56:03;;;;;;;3.08;2.50;;;21.40;99.90;;;;;;5092201;28;20449;-79
2021/06/07 07:58:28;;;;;;;3.35;2.42;;;21.40;99.90;;;;;;5102451;28;20016;-79
2021/06/07 08:00:55;;;;;;;3.10;2.65;;;21.40;99.90;;;;;;5093864;28;20025;-79
2021/06/07 08:03:21;;;;;;;2.63;2.53;;;21.40;99.90;;;;;;5093463;28;20023;-79
2021/06/07 08:05:47;;;;;;;3.05;2.75;;;21.40;99.90;;;;;;5093304;28;20449;-80
2021/06/07 08:08:13;;;;;;;3.20;2.95;;;21.40;99.90;;;;;;5093602;28;20392;-79
2021/06/07 08:10:39;;;;;;;4.15;2.90;;;21.40;99.90;;;;;;5092899;28;20024;-79
2021/06/07 08:13:05;;;;;;;3.55;3.17;;;21.40;99.90;;;;;;5094227;28;20081;-79
2021/06/07 08:15:34;;;;;;;5.53;2.83;;;21.50;99.90;;;;;;5094106;28;20032;-79
2021/06/07 08:18:00;;;;;;;5.03;2.55;;;21.60;99.90;;;;;;5092489;28;20032;-79
2021/06/07 08:20:26;;;;;;;4.10;3.22;;;21.70;99.90;;;;;;5109599;28;20015;-79
2021/06/07 08:22:55;;;;;;;5.75;2.92;;;21.70;99.90;;;;;;5092487;28;20044;-79
2021/06/07 08:25:22;;;;;;;3.50;3.20;;;21.80;99.90;;;;;;5085687;28;20016;-79
2021/06/07 08:27:49;;;;;;;4.15;2.92;;;21.80;99.90;;;;;;5093618;28;20032;-79
2021/06/07 08:30:17;;;;;;;8.00;2.97;;;21.90;99.90;;;;;;5099102;28;20020;-78
2021/06/07 08:32:43;;;;;;;3.40;3.10;;;21.90;99.90;;;;;;5092840;28;20027;-78
2021/06/07 08:35:10;;;;;;;3.47;2.80;;;22.00;99.90;;;;;;5093784;28;20024;-78
2021/06/07 08:37:37;;;;;;;2.90;2.70;;;22.00;99.90;;;;;;5103219;28;20023;-78
2021/06/07 08:40:06;;;;;;;5.57;3.13;;;22.00;99.90;;;;;;5105787;28;20028;-78
2021/06/07 08:42:33;;;;;;;4.35;2.85;;;22.00;99.90;;;;;;5092099;28;20030;-78
2021/06/07 08:44:59;;;;;;;3.13;2.92;;;22.00;99.90;;;;;;5093795;28;20089;-78
2021/06/07 08:47:25;;;;;;;2.60;2.50;;;22.00;99.90;;;;;;5093693;28;20020;-78
2021/06/07 08:49:51;;;;;;;3.42;2.83;;;22.10;99.90;;;;;;5126710;27;20030;-79
2021/06/07 08:52:18;;;;;;;3.55;2.63;;;22.10;99.90;;;;;;5092422;28;20036;-78
2021/06/07 08:54:46;;;;;;;5.90;3.10;;;22.10;99.90;;;;;;5092220;28;20077;-78
2021/06/07 08:57:12;;;;;;;2.92;2.55;;;22.10;99.90;;;;;;5093379;28;20387;-78
2021/06/07 08:59:38;;;;;;;3.63;3.17;;;22.10;99.90;;;;;;5103258;28;20098;-78
2021/06/07 09:02:04;;;;;;;2.95;2.75;;;22.20;99.90;;;;;;5113838;28;20022;-78
2021/06/07 09:04:31;;;;;;;3.92;2.55;;;22.20;99.90;;;;;;5095959;28;20040;-78
2021/06/07 09:07:02;;;;;;;4.25;2.75;;;22.20;99.90;;;;;;5088920;28;20387;-79
2021/06/07 09:09:28;;;;;;;4.10;2.55;;;22.40;99.90;;;;;;5092511;28;20040;-78
2021/06/07 09:12:03;;;;;;;5.25;2.75;;;22.50;99.90;;;;;;5092138;28;20516;-78
2021/06/07 09:14:40;;;;;;;2.85;2.13;;;22.50;99.90;;;;;;5099372;28;20057;-78
2021/06/07 09:17:20;;;;;;;2.92;2.25;;;22.60;99.90;;;;;;5111108;28;20028;-78
2021/06/07 09:19:47;;;;;;;5.10;2.28;;;22.60;99.90;;;;;;5093326;28;20017;-78
2021/06/07 09:22:23;;;;;;;1.77;1.67;;;22.70;99.90;;;;;;5093072;28;20040;-78
2021/06/07 09:25:01;;;;;;;1.88;1.23;;;22.80;99.90;;;;;;5093162;28;20102;-78
2021/06/07 09:27:27;;;;;;;2.30;1.50;;;22.90;99.70;;;;;;5093089;28;20112;-78
2021/06/07 09:29:53;;;;;;;2.33;1.50;;;22.90;99.20;;;;;;5091880;28;20138;-78
2021/06/07 09:32:19;;;;;;;1.80;1.55;;;22.80;98.60;;;;;;5093019;28;20369;-79
2021/06/07 09:34:45;;;;;;;2.67;1.92;;;22.90;99.00;;;;;;5113155;28;20103;-78
2021/06/07 09:37:12;;;;;;;1.70;1.60;;;23.00;99.70;;;;;;5111936;28;20020;-79
2021/06/07 09:39:40;;;;;;;1.35;1.25;;;23.00;99.60;;;;;;5112122;28;20018;-78
2021/06/07 09:42:10;;;;;;;3.80;1.88;;;23.00;98.50;;;;;;5097441;28;20074;-78
2021/06/07 09:44:51;;;;;;;2.17;2.03;;;23.00;99.50;;;;;;5092700;28;20024;-78
2021/06/07 09:47:17;;;;;;;2.35;2.20;;;23.00;99.70;;;;;;5091411;28;20018;-79
2021/06/07 09:49:46;;;;;;;1.77;1.67;;;22.90;99.40;;;;;;5090695;28;20043;-79
2021/06/07 09:52:44;;;;;;;4.35;2.45;;;23.00;99.60;;;;;;5092725;28;20031;-79
2021/06/07 09:55:22;;;;;;;2.30;2.00;;;23.00;99.50;;;;;;5085453;28;20020;-78
2021/06/07 09:58:05;;;;;;;2.40;2.28;;;23.00;99.70;;;;;;5105058;28;20027;-79
2021/06/07 10:00:43;;;;;;;3.00;2.22;;;23.00;99.60;;;;;;5087631;28;20104;-78
2021/06/07 10:03:25;;;;;;;4.13;3.10;;;23.10;99.90;;;;;;5089613;28;20079;-79
2021/06/07 10:05:53;;;;;;;2.95;2.70;;;23.10;99.90;;;;;;5091730;28;20517;-79
2021/06/07 10:08:24;;;;;;;3.60;2.80;;;23.10;99.90;;;;;;5092411;28;20058;-79
2021/06/07 10:10:51;;;;;;;4.97;3.17;;;23.10;99.90;;;;;;5092371;28;20063;-79
2021/06/07 10:13:18;;;;;;;3.30;3.00;;;23.10;99.90;;;;;;5092481;28;20387;-80
2021/06/07 10:15:46;;;;;;;3.95;3.60;;;23.10;99.70;;;;;;5092544;28;20108;-80
2021/06/07 10:18:20;;;;;;;3.70;2.90;;;23.10;99.70;;;;;;5090841;28;20031;-79
2021/06/07 10:20:51;;;;;;;3.78;3.47;;;23.10;99.90;;;;;;5092396;28;20024;-79
2021/06/07 10:23:28;;;;;;;4.57;3.55;;;23.10;99.90;;;;;;5083675;28;20131;-79
2021/06/07 10:25:59;;;;;;;5.30;3.83;;;23.10;99.90;;;;;;5082435;28;20039;-79
2021/06/07 10:28:35;;;;;;;4.80;3.10;;;23.10;99.90;;;;;;5084619;28;20024;-79
2021/06/07 10:31:10;;;;;;;4.70;3.72;;;23.20;99.90;;;;;;5083007;28;20111;-78
2021/06/07 10:33:38;;;;;;;4.07;3.70;;;23.20;99.90;;;;;;5084252;28;20028;-79
2021/06/07 10:36:22;;;;;;;5.63;3.33;;;23.30;99.90;;;;;;5082406;28;20069;-79
2021/06/07 10:38:49;;;;;;;3.35;3.05;;;23.30;99.90;;;;;;5083865;28;20340;-79
2021/06/07 10:41:22;;;;;;;3.70;3.40;;;23.30;99.70;;;;;;5083787;28;20032;-79
2021/06/07 10:43:53;;;;;;;3.78;3.42;;;23.30;99.70;;;;;;5084919;28;20025;-79
2021/06/07 10:46:38;;;;;;;3.30;3.00;;;23.40;99.90;;;;;;5084764;28;20020;-78
2021/06/07 10:49:24;;;;;;;3.38;3.15;;;23.40;99.90;;;;;;5084927;28;20094;-79
2021/06/07 10:52:24;;;;;;;4.45;3.58;;;23.40;99.90;;;;;;5084553;28;20081;-79
2021/06/07 10:55:06;;;;;;;4.10;3.30;;;23.40;99.90;;;;;;5043087;28;20024;-79
2021/06/07 10:57:57;;;;;;;4.30;3.85;;;23.50;99.90;;;;;;5083764;28;21507;-79
2021/06/07 11:00:29;;;;;;;4.35;3.58;;;23.50;99.90;;;;;;5076315;28;20040;-79
2021/06/07 11:02:57;;;;;;;;;;;23.60;99.90;;;;;;5086096;28;20103;-79
2021/06/07 11:05:33;;;;;;;9.15;3.67;;;23.70;99.90;;;;;;5085897;28;19900;-79
2021/06/07 11:08:17;;;;;;;4.78;3.45;;;23.70;99.10;;;;;;5087097;28;20423;-79
2021/06/07 11:11:06;;;;;;;7.68;3.13;;;23.70;97.90;;;;;;5085666;28;20012;-79
2021/06/07 11:13:49;;;;;;;5.28;3.50;;;23.80;98.60;;;;;;5086793;28;20031;-79
2021/06/07 11:16:34;;;;;;;3.45;3.08;;;23.90;98.50;;;;;;5085313;28;20020;-79
2021/06/07 11:19:03;;;;;;;4.22;3.80;;;24.00;98.60;;;;;;5086776;28;20063;-79
2021/06/07 11:21:29;;;;;;;4.25;3.65;;;24.10;98.90;;;;;;5086291;28;20059;-78
2021/06/07 11:23:55;;;;;;;3.78;3.47;;;24.20;99.00;;;;;;5086559;28;20076;-79
2021/06/07 11:26:39;;;;;;;4.03;3.63;;;24.30;98.70;;;;;;5086363;28;20039;-79
2021/06/07 11:29:08;;;;;;;3.92;3.50;;;24.40;98.30;;;;;;5086531;28;20021;-78
2021/06/07 11:31:33;;;;;;;3.75;3.45;;;24.30;97.70;;;;;;5086994;28;20024;-79
2021/06/07 11:34:04;;;;;;;3.45;3.22;;;24.40;98.20;;;;;;5086486;28;20557;-78
2021/06/07 11:37:00;;;;;;;4.28;3.17;;;24.50;97.60;;;;;;5086139;28;20403;-78
2021/06/07 11:39:45;;;;;;;3.90;3.60;;;24.50;97.20;;;;;;5086446;28;20040;-77
2021/06/07 11:42:14;;;;;;;2.70;2.60;;;24.80;96.90;;;;;;5085786;28;20115;-79
2021/06/07 11:44:44;;;;;;;3.70;3.08;;;25.00;96.30;;;;;;5088223;28;20028;-79
2021/06/07 11:47:26;;;;;;;2.10;2.00;;;25.10;95.70;;;;;;5085685;28;20045;-78
2021/06/07 11:49:55;;;;;;;4.90;2.53;;;25.30;95.50;;;;;;5088486;28;20016;-78
2021/06/07 11:52:52;;;;;;;3.08;2.53;;;25.60;94.50;;;;;;5086271;28;20031;-78
2021/06/07 11:55:33;;;;;;;6.10;2.90;;;25.60;93.90;;;;;;5085545;28;20024;-79
2021/06/07 11:58:21;;;;;;;6.78;3.45;;;25.90;94.90;;;;;;5088332;28;20020;-79
2021/06/07 12:01:00;;;;;;;2.72;2.53;;;26.00;93.10;;;;;;5116257;27;20028;-78
2021/06/07 12:03:28;;;;;;;2.85;2.65;;;26.10;92.70;;;;;;5085054;28;20024;-78
2021/06/07 12:05:55;;;;;;;2.97;2.65;;;26.20;92.80;;;;;;5085421;28;20095;-79
2021/06/07 12:08:24;;;;;;;2.25;2.05;;;26.40;92.60;;;;;;5084577;28;20502;-78
2021/06/07 12:10:59;;;;;;;2.50;2.30;;;26.50;92.00;;;;;;5086855;28;20387;-78
2021/06/07 12:13:41;;;;;;;2.10;2.00;;;26.30;91.90;;;;;;5086575;28;20021;-78
2021/06/07 12:16:15;;;;;;;2.75;2.08;;;26.30;92.20;;;;;;5085713;28;20055;-78
2021/06/07 12:18:52;;;;;;;2.80;2.60;;;26.40;92.10;;;;;;5084274;28;20070;-78
2021/06/07 12:21:23;;;;;;;2.95;2.75;;;26.30;91.90;;;;;;5084185;28;20501;-78
2021/06/07 12:23:56;;;;;;;2.88;2.28;;;26.40;92.30;;;;;;5085866;28;20107;-78
2021/06/07 12:29:23;;;;;;;1.85;1.75;;;26.30;91.40;;;;;;5086276;28;20073;-78
2021/06/07 12:32:00;;;;;;;2.97;2.15;;;26.40;91.20;;;;;;5086657;28;20380;-78
2021/06/07 12:34:26;;;;;;;1.85;1.75;;;26.70;90.90;;;;;;5086869;28;20035;-78
2021/06/07 12:36:52;;;;;;;1.50;1.40;;;27.00;90.10;;;;;;5086126;28;20025;-78
2021/06/07 12:39:18;;;;;;;2.20;1.92;;;27.10;87.10;;;;;;5086333;28;20123;-78
2021/06/07 12:41:45;;;;;;;1.88;1.77;;;27.20;84.10;;;;;;5085553;28;20493;-78
2021/06/07 12:44:11;;;;;;;4.07;1.60;;;27.50;85.80;;;;;;5085808;28;20028;-78
2021/06/07 12:46:52;;;;;;;6.20;1.92;;;27.70;83.90;;;;;;5086832;28;20016;-78
2021/06/07 12:49:36;;;;;;;1.95;1.85;;;27.90;83.20;;;;;;5118821;27;20017;-78
2021/06/07 12:52:05;;;;;;;1.92;1.52;;;27.70;83.10;;;;;;5086161;28;20019;-78
2021/06/07 12:54:33;;;;;;;1.80;1.70;;;27.40;80.70;;;;;;5084803;28;20103;-78
2021/06/07 12:57:00;;;;;;;2.53;2.00;;;27.20;81.90;;;;;;5086972;28;20020;-78
2021/06/07 12:59:31;;;;;;;1.80;1.70;;;27.10;82.40;;;;;;5086061;28;20394;-78